»·PEaware :: N2442P KSBA-KSBP

N2442P :: KSBA-KSBP

FLIGHT INFORMATION

Flight Status: Arrived
Operator: Privately registered:
United States
More flights under this callsign
Pilot: Ken Q. (14290)
Aircraft: MOONEY M-20K/M ENCORE BRAVO
(M20T)
More flights by this aircraft type
Origin: KSBA Santa Barbara Mun
United States
Destination: KSBP San Luis Co Regl
United States
More flights between these airports :: More routes between these airports
Route: +GVO MQO
File this flight plan on PilotEdge
Remarks: X
Altitude:
(Current/Filed)
6,500ft
Speed:
(Current/Filed)
175kts
Departed: 11-Feb-19 01:29 PM
Arrived: 11-Feb-19 02:00 PM
Distance/Time
Traveled:
63nm/0:31
Distance/Time
To Go:
Arrived

Flight Plot

Page will automatically refresh every two minutes.


Map Options




Map Legend


Flown Route
Filed Route
Departure Airport
Arrival Airport
Navaid (VOR, NDB)
Fix

Horizontal Profiles

Position Reports

Time Latitude Longitude Heading Altitude Ground
Speed
11-Feb-19 13:00 34.423147 -119.835925 166 13ft 0kts
11-Feb-19 13:01 34.423147 -119.835925 166 13ft 0kts
11-Feb-19 13:02 34.423147 -119.835925 166 13ft 0kts
11-Feb-19 13:03 34.423147 -119.835925 166 13ft 0kts
11-Feb-19 13:04 34.423147 -119.835925 166 13ft 0kts
11-Feb-19 13:05 34.423147 -119.835925 166 13ft 0kts
11-Feb-19 13:06 34.423147 -119.835925 166 13ft 0kts
11-Feb-19 13:07 34.423147 -119.835925 166 13ft 0kts
11-Feb-19 13:08 34.423147 -119.835925 166 13ft 0kts
11-Feb-19 13:09 34.423147 -119.835925 166 13ft 0kts
11-Feb-19 13:10 34.423147 -119.835925 166 13ft 0kts
11-Feb-19 13:11 34.423147 -119.835925 166 13ft 0kts
11-Feb-19 13:12 34.423147 -119.835925 166 13ft 0kts
11-Feb-19 13:13 34.423147 -119.835925 166 13ft 0kts
11-Feb-19 13:14 34.423146 -119.835925 166 13ft 0kts
11-Feb-19 13:15 34.423146 -119.835925 166 13ft 0kts
11-Feb-19 13:16 34.423146 -119.835925 166 13ft 0kts
11-Feb-19 13:16 34.423145 -119.835925 166 13ft 0kts
11-Feb-19 13:18 34.423145 -119.835924 166 13ft 0kts
11-Feb-19 13:19 34.423145 -119.835924 166 13ft 0kts
11-Feb-19 13:20 34.423145 -119.835924 166 13ft 0kts
11-Feb-19 13:20 34.423144 -119.835924 166 13ft 0kts
11-Feb-19 13:22 34.423144 -119.835924 166 13ft 0kts
11-Feb-19 13:23 34.423144 -119.835924 166 13ft 0kts
11-Feb-19 13:23 34.423420 -119.837308 350 13ft 13kts
11-Feb-19 13:24 34.426735 -119.837189 89 13ft 0kts
11-Feb-19 13:25 34.426735 -119.837183 89 13ft 0kts
11-Feb-19 13:26 34.427064 -119.835135 357 13ft 0kts
11-Feb-19 13:27 34.427192 -119.835148 353 13ft 6kts
11-Feb-19 13:28 34.428100 -119.855677 266 360ft 103kts
11-Feb-19 13:29 34.427819 -119.894962 265 1036ft 127kts
11-Feb-19 13:30 34.432406 -119.939280 287 1658ft 138kts
11-Feb-19 13:31 34.448834 -119.981695 306 2313ft 139kts
11-Feb-19 13:32 34.471866 -120.018107 307 3099ft 134kts
11-Feb-19 13:33 34.493967 -120.054475 307 3891ft 130kts
11-Feb-19 13:34 34.518537 -120.085312 317 4685ft 125kts
11-Feb-19 13:35 34.541720 -120.112582 317 5338ft 130kts
11-Feb-19 13:36 34.569443 -120.145576 317 5780ft 148kts
11-Feb-19 13:37 34.599682 -120.181612 317 6191ft 155kts
11-Feb-19 13:38 34.629119 -120.214524 321 6485ft 158kts
11-Feb-19 13:39 34.661586 -120.246580 322 6494ft 165kts
11-Feb-19 13:40 34.697671 -120.282036 322 6495ft 168kts
11-Feb-19 13:41 34.730885 -120.314754 322 6493ft 166kts
11-Feb-19 13:42 34.766947 -120.349898 323 6493ft 165kts
11-Feb-19 13:43 34.803311 -120.384480 323 6492ft 165kts
11-Feb-19 13:44 34.839542 -120.418945 323 6490ft 165kts
11-Feb-19 13:45 34.875658 -120.452691 324 6337ft 162kts
11-Feb-19 13:46 34.911657 -120.485835 324 5840ft 162kts
11-Feb-19 13:47 34.949538 -120.515585 330 5338ft 160kts
11-Feb-19 13:48 34.988029 -120.543467 330 4848ft 163kts
11-Feb-19 13:49 35.026933 -120.571532 330 4341ft 161kts
11-Feb-19 13:50 35.065408 -120.599198 330 3841ft 160kts
11-Feb-19 13:51 35.103102 -120.626207 330 3334ft 153kts
11-Feb-19 13:52 35.138143 -120.655138 324 2831ft 150kts
11-Feb-19 13:53 35.171942 -120.681820 341 2323ft 137kts
11-Feb-19 13:54 35.202010 -120.670758 71 1827ft 129kts
11-Feb-19 13:55 35.196393 -120.628086 112 1344ft 131kts
11-Feb-19 13:56 35.200964 -120.596915 29 1171ft 79kts
11-Feb-19 13:57 35.219959 -120.609541 309 887ft 82kts
11-Feb-19 13:58 35.233940 -120.634825 303 394ft 81kts
11-Feb-19 13:59 35.240710 -120.647336 269 215ft 18kts
11-Feb-19 14:00 35.240448 -120.647736 208 215ft 0kts
11-Feb-19 14:01 35.238345 -120.645789 169 215ft 11kts
11-Feb-19 14:02 35.237658 -120.647607 268 215ft 4kts
11-Feb-19 14:03 35.237658 -120.647630 270 215ft 0kts
11-Feb-19 14:04 35.237658 -120.647630 270 215ft 0kts

Navigation Log

Ident Type
Flight plan parsing failed, navigation log unavailable